Athens, Greece
Current Conditions -  °F | °C
As of 12:20 PM on Friday 24 Oct 2014 (Local Time) from LGEL Reporting Station
Thunderstorm Thunderstorm  
Wind Chill: 18°   Ceiling: 2500
Heat Index: 18°   Visibility: 2.5mi
Dew Point: 12°   Wind: 10mph
Humidity: 68%   Direction: 100°E
Pressure: 29.71"   Gusts: NA
Location:  37.98°N, 23.73°E
Report Text: LGEL 240920Z 10009KT 4000 TSRA FEW015CB FEW018TCU BKN025 OVC070 18/12 Q1006
Loading
Personal Weather Stations






























Interactive Weather Map
Tropical Storm Tracking
New forecast layout! Learn more

10-Day Weather Forecast

Advertisements
Track Severe Weather on mobile